createdAt,value
2018-10-18T00:01:15.561Z,40.33
2018-10-18T00:03:43.849Z,42.47
2018-10-18T00:06:12.137Z,40.93
2018-10-18T00:08:40.381Z,40.47
2018-10-18T00:11:08.649Z,40.43
2018-10-18T00:13:47.228Z,40.90
2018-10-18T00:16:15.517Z,41.47
2018-10-18T00:24:46.360Z,42.73
2018-10-18T00:27:14.637Z,45.07
2018-10-18T00:29:42.904Z,47.70
2018-10-18T00:32:11.180Z,44.40
2018-10-18T00:34:39.518Z,40.13
2018-10-18T00:37:07.808Z,41.80
2018-10-18T00:39:36.061Z,44.73
2018-10-18T00:42:04.446Z,44.17
2018-10-18T00:44:32.698Z,46.47
2018-10-18T00:47:00.996Z,49.13
2018-10-18T00:49:29.290Z,50.97
2018-10-18T00:51:57.561Z,51.83
2018-10-18T00:54:25.826Z,49.10
2018-10-18T00:56:54.120Z,51.60
2018-10-18T00:59:22.373Z,48.17
2018-10-18T01:01:50.679Z,50.73
2018-10-18T01:04:18.949Z,48.97
2018-10-18T01:06:47.210Z,46.93
2018-10-18T01:09:15.504Z,45.10
2018-10-18T01:11:43.782Z,46.73
2018-10-18T01:14:17.950Z,46.77
2018-10-18T01:16:46.152Z,49.80
2018-10-18T01:22:07.488Z,54.57
2018-10-18T01:24:43.153Z,62.67
2018-10-18T01:33:07.373Z,64.03
2018-10-18T01:35:35.636Z,67.83
2018-10-18T01:38:03.953Z,71.17
2018-10-18T01:40:32.201Z,69.30
2018-10-18T01:43:00.457Z,67.73
2018-10-18T01:45:29.097Z,72.83
2018-10-18T01:47:57.422Z,71.33
2018-10-18T01:50:25.645Z,78.17
2018-10-18T01:52:53.952Z,84.23
2018-10-18T01:55:22.202Z,91.03
2018-10-18T01:57:50.482Z,88.40
2018-10-18T02:00:18.880Z,86.40
2018-10-18T02:02:47.067Z,84.80
2018-10-18T02:05:15.363Z,87.73
2018-10-18T02:07:43.633Z,75.43
2018-10-18T02:10:11.918Z,73.93
2018-10-18T02:22:02.568Z,59.50
2018-10-18T02:24:30.832Z,70.13
2018-10-18T03:12:45.414Z,74.10
2018-10-18T03:15:13.694Z,67.83
2018-10-18T03:17:41.978Z,50.27
2018-10-18T03:20:10.279Z,58.50
2018-10-18T03:22:38.586Z,66.03
2018-10-18T03:27:59.053Z,53.13
2018-10-18T03:30:27.329Z,59.20
2018-10-18T03:32:55.609Z,65.93
2018-10-18T03:35:23.867Z,67.13
2018-10-18T03:37:52.137Z,67.20
2018-10-18T03:40:20.393Z,63.70
2018-10-18T03:42:48.650Z,64.17
2018-10-18T03:45:16.888Z,58.83
2018-10-18T03:47:45.145Z,59.87
2018-10-18T03:50:13.406Z,64.20
2018-10-18T03:52:41.684Z,54.07
2018-10-18T03:55:09.921Z,53.20
2018-10-18T03:57:38.186Z,54.30
2018-10-18T04:00:07.219Z,58.67
2018-10-18T04:02:35.570Z,54.33
2018-10-18T04:05:03.818Z,53.27
2018-10-18T04:07:32.061Z,48.33
2018-10-18T04:10:00.298Z,55.03
2018-10-18T04:15:21.136Z,53.00
2018-10-18T04:17:49.473Z,42.23
2018-10-18T04:20:21.006Z,39.70
2018-10-18T04:22:49.272Z,34.23
2018-10-18T04:25:35.421Z,42.93
2018-10-18T05:28:17.179Z,33.93
2018-10-18T05:30:45.456Z,42.00
2018-10-18T05:33:13.693Z,36.57
2018-10-18T05:35:41.953Z,37.90
2018-10-18T05:38:10.185Z,37.70
2018-10-18T05:40:38.441Z,36.20
2018-10-18T05:43:06.754Z,35.03
2018-10-18T05:45:35.006Z,39.00
2018-10-18T05:48:03.420Z,38.67
2018-10-18T05:50:31.664Z,44.03
2018-10-18T05:53:00.023Z,44.50
2018-10-18T05:55:28.258Z,43.33
2018-10-18T05:57:56.504Z,37.63
2018-10-18T06:00:24.805Z,40.23
2018-10-18T06:02:53.009Z,42.63
2018-10-18T06:05:21.269Z,40.37
2018-10-18T06:07:49.500Z,41.27
2018-10-18T06:10:29.007Z,44.40
2018-10-18T06:12:57.224Z,44.20
2018-10-18T06:21:21.337Z,37.33
2018-10-18T06:23:49.822Z,37.80
2018-10-18T07:29:49.342Z,59.30
2018-10-18T07:32:17.613Z,61.20
2018-10-18T07:34:45.897Z,64.80
2018-10-18T07:37:14.179Z,63.33
2018-10-18T07:39:42.441Z,65.53
2018-10-18T07:42:10.725Z,67.73
2018-10-18T07:44:38.997Z,76.93
2018-10-18T07:47:07.270Z,72.60
2018-10-18T07:49:35.518Z,76.03
2018-10-18T07:52:03.818Z,78.50
2018-10-18T07:54:32.049Z,77.80
2018-10-18T07:57:00.270Z,80.80
2018-10-18T07:59:28.546Z,75.83
2018-10-18T08:01:56.743Z,68.63
2018-10-18T08:04:24.977Z,73.53
2018-10-18T08:06:53.282Z,66.77
2018-10-18T08:09:21.490Z,67.30
2018-10-18T08:11:49.732Z,69.93
2018-10-18T08:14:19.496Z,65.73
2018-10-18T08:16:47.776Z,62.33
2018-10-18T08:25:11.268Z,61.87
2018-10-18T08:27:39.426Z,61.43
2018-10-18T08:30:09.365Z,59.37
2018-10-18T08:32:43.825Z,59.83
2018-10-18T08:35:12.795Z,59.63
2018-10-18T08:37:41.229Z,59.50
2018-10-18T08:40:09.518Z,57.70
2018-10-18T08:42:37.757Z,56.37
2018-10-18T08:45:07.313Z,61.97
2018-10-18T08:47:35.579Z,59.40
2018-10-18T08:50:03.925Z,57.17
2018-10-18T08:52:32.125Z,57.03
2018-10-18T08:55:00.439Z,58.13
2018-10-18T08:57:28.648Z,56.73
2018-10-18T08:59:56.929Z,59.63
2018-10-18T09:02:25.199Z,55.33
2018-10-18T09:04:53.507Z,55.00
2018-10-18T09:07:21.765Z,52.70
2018-10-18T09:09:50.019Z,52.07
2018-10-18T09:23:59.087Z,48.73
2018-10-18T09:26:27.255Z,48.33
2018-10-18T09:31:48.301Z,49.47
2018-10-18T09:34:16.557Z,49.00
2018-10-18T09:36:44.804Z,49.47
2018-10-18T09:39:13.054Z,46.77
2018-10-18T09:41:41.314Z,44.60
2018-10-18T09:44:09.572Z,41.33
2018-10-18T09:46:38.071Z,41.93
2018-10-18T09:49:06.374Z,42.53
2018-10-18T09:51:34.600Z,43.63
2018-10-18T09:54:03.584Z,47.30
2018-10-18T09:56:32.818Z,46.30
2018-10-18T09:59:01.358Z,42.40
2018-10-18T10:01:34.822Z,40.03
2018-10-18T10:04:03.137Z,40.50
2018-10-18T10:06:31.377Z,39.37
2018-10-18T10:08:59.660Z,39.10
2018-10-18T10:11:27.965Z,41.33
2018-10-18T10:13:57.551Z,42.17
2018-10-18T10:16:25.800Z,40.17
2018-10-18T10:18:54.084Z,40.53
2018-10-18T10:27:17.024Z,37.50
2018-10-18T10:29:45.284Z,38.40
2018-10-18T10:32:13.561Z,37.37
2018-10-18T10:34:41.817Z,35.77
2018-10-18T10:37:10.100Z,37.70
2018-10-18T10:39:38.353Z,33.97
2018-10-18T10:42:06.882Z,29.93
2018-10-18T10:44:35.183Z,27.23
2018-10-18T10:47:03.408Z,27.47
2018-10-18T10:49:31.708Z,26.87
2018-10-18T10:52:00.034Z,27.77
2018-10-18T10:54:28.275Z,26.93
2018-10-18T10:56:56.587Z,25.63
2018-10-18T10:59:24.821Z,25.50
2018-10-18T11:01:53.104Z,25.43
2018-10-18T11:04:21.362Z,25.27
2018-10-18T11:06:49.697Z,24.00
2018-10-18T11:09:18.086Z,24.17
2018-10-18T11:11:46.352Z,24.90
2018-10-18T11:14:14.609Z,23.33
2018-10-18T11:19:57.598Z,24.23
2018-10-18T11:22:25.827Z,24.70
2018-10-18T11:30:49.530Z,21.73
2018-10-18T11:33:17.883Z,21.77
2018-10-18T11:35:46.111Z,21.90
2018-10-18T11:38:15.232Z,21.77
2018-10-18T11:40:43.565Z,21.20
2018-10-18T11:43:12.085Z,21.77
2018-10-18T11:45:40.606Z,21.23
2018-10-18T11:48:10.210Z,21.93
2018-10-18T11:50:38.443Z,22.67
2018-10-18T11:53:06.699Z,22.07
2018-10-18T11:55:35.197Z,25.23
2018-10-18T11:58:03.553Z,25.00
2018-10-18T12:00:31.801Z,26.37
2018-10-18T12:03:00.040Z,25.40
2018-10-18T12:05:28.279Z,26.37
2018-10-18T12:07:56.555Z,24.63
2018-10-18T12:10:24.801Z,22.80
2018-10-18T12:13:11.794Z,26.27
2018-10-18T12:15:40.120Z,25.97
2018-10-18T12:18:08.420Z,23.53
2018-10-18T13:29:52.308Z,3.73
2018-10-18T13:32:20.560Z,4.10
2018-10-18T13:34:48.797Z,4.57
2018-10-18T13:37:17.054Z,4.80
2018-10-18T13:39:45.318Z,4.80
2018-10-18T13:42:13.599Z,4.20
2018-10-18T13:44:41.832Z,4.53
2018-10-18T13:47:10.118Z,4.60
2018-10-18T13:49:38.390Z,4.50
2018-10-18T13:52:06.645Z,4.20
2018-10-18T13:54:34.890Z,4.20
2018-10-18T13:57:03.707Z,4.83
2018-10-18T13:59:43.245Z,4.00
2018-10-18T14:02:11.417Z,3.80
2018-10-18T14:04:39.674Z,3.37
2018-10-18T14:07:07.917Z,3.50
2018-10-18T14:09:36.178Z,4.37
2018-10-18T14:12:04.414Z,3.70
2018-10-18T14:17:25.517Z,3.37
2018-10-18T14:22:58.145Z,3.60
2018-10-18T15:22:50.260Z,2.37
2018-10-18T16:16:49.485Z,2.37
2018-10-18T16:19:46.310Z,1.63
2018-10-18T16:31:01.948Z,2.10
2018-10-18T16:33:30.250Z,1.90
2018-10-18T16:35:58.487Z,1.93
2018-10-18T16:38:26.760Z,2.00
2018-10-18T17:03:40.458Z,2.03
2018-10-18T17:06:08.652Z,2.20
2018-10-18T17:08:36.618Z,1.90
2018-10-18T17:11:04.954Z,2.00
2018-10-18T17:50:03.550Z,1.90
2018-10-18T17:52:31.697Z,2.77
2018-10-18T17:54:59.723Z,2.13
2018-10-18T17:57:27.862Z,1.77
2018-10-18T17:59:56.373Z,1.90
2018-10-18T18:02:24.765Z,1.90
2018-10-18T18:04:52.893Z,1.80
2018-10-18T18:07:20.983Z,1.80
2018-10-18T18:09:49.100Z,1.90
2018-10-18T18:12:17.198Z,1.80
2018-10-18T18:32:52.171Z,1.70
2018-10-18T18:35:20.294Z,1.73
2018-10-18T18:43:43.674Z,1.57
2018-10-18T18:46:11.761Z,1.80
2018-10-18T18:48:39.914Z,1.37
2018-10-18T18:51:08.090Z,1.70
2018-10-18T18:53:36.248Z,1.50
2018-10-18T18:56:04.321Z,1.77
2018-10-18T18:58:32.428Z,2.80
2018-10-18T19:01:00.529Z,1.60
2018-10-18T19:03:28.667Z,2.00
2018-10-18T19:05:56.747Z,2.00
2018-10-18T19:08:24.837Z,1.80
2018-10-18T19:10:52.942Z,2.13
2018-10-18T19:16:35.534Z,2.00
2018-10-18T19:19:03.979Z,1.97
2018-10-18T19:21:32.108Z,1.70
2018-10-18T19:24:00.200Z,1.87
2018-10-18T19:26:28.272Z,2.10
2018-10-18T19:28:56.354Z,1.87
2018-10-18T19:34:19.417Z,3.33
2018-10-18T19:36:57.963Z,2.30
2018-10-18T19:42:28.126Z,3.27
2018-10-18T19:50:50.700Z,2.10
2018-10-18T19:53:18.812Z,1.87
2018-10-18T19:55:54.156Z,1.80
2018-10-18T19:58:22.373Z,2.00
2018-10-18T20:00:51.847Z,1.70
2018-10-18T20:03:19.994Z,1.90
2018-10-18T20:05:51.426Z,2.00
2018-10-18T20:08:23.009Z,2.03
2018-10-18T20:10:51.102Z,1.80
2018-10-18T20:13:23.270Z,2.00
2018-10-18T20:31:02.062Z,1.80
2018-10-18T20:33:30.146Z,2.33
2018-10-18T20:36:16.531Z,2.50
2018-10-18T20:38:45.287Z,2.30
2018-10-18T20:44:05.853Z,2.17
2018-10-18T20:46:46.616Z,1.97
2018-10-18T20:49:14.570Z,2.43
2018-10-18T20:51:42.643Z,2.17
2018-10-18T20:54:10.785Z,2.30
2018-10-18T20:56:38.803Z,2.20
2018-10-18T20:59:06.901Z,2.17
2018-10-18T21:01:34.969Z,2.33
2018-10-18T21:04:03.041Z,2.20
2018-10-18T21:06:31.366Z,2.20
2018-10-18T21:08:59.261Z,2.50
2018-10-18T21:11:27.358Z,2.13
2018-10-18T21:16:47.609Z,1.93
2018-10-18T21:19:15.692Z,2.37
2018-10-18T21:21:43.771Z,2.40
2018-10-18T21:24:11.848Z,1.80
2018-10-18T21:26:39.932Z,1.90
2018-10-18T21:29:08.029Z,1.63
2018-10-18T21:34:28.639Z,1.73
2018-10-18T22:26:57.595Z,1.90
2018-10-18T22:32:18.490Z,2.20
2018-10-18T22:40:41.645Z,2.80
2018-10-18T22:43:21.566Z,2.57
2018-10-18T22:45:55.138Z,2.63
2018-10-18T22:48:23.218Z,2.13
2018-10-18T22:50:51.297Z,2.50
2018-10-18T22:53:19.382Z,2.77
2018-10-18T22:55:47.475Z,1.97
2018-10-18T22:58:15.597Z,2.43
2018-10-18T23:00:49.345Z,2.43
2018-10-18T23:03:18.875Z,2.30
2018-10-18T23:05:47.192Z,2.10
2018-10-18T23:08:15.366Z,2.43
2018-10-18T23:10:43.461Z,2.40
2018-10-18T23:16:04.617Z,2.63
2018-10-18T23:18:32.734Z,2.50
2018-10-18T23:21:00.851Z,2.03
2018-10-18T23:23:28.913Z,2.43
2018-10-18T23:25:56.984Z,2.50
2018-10-18T23:34:19.863Z,2.40
2018-10-18T23:36:47.953Z,2.23
2018-10-18T23:45:10.983Z,2.40
